Time;durP1;ratioP1;P1;durP2;ratioP2;P2;SDS_P1;SDS_P2;PMS_P1;PMS_P2;Temp;Humidity;BMP_temperature;BMP_pressure;BME280_temperature;BME280_humidity;BME280_pressure;Samples;Min_cycle;Max_cycle;Signal;HPM_P1;HPM_P2
2023/12/31 00:00:51;;;;;;;2.93;2.57;;;;;;;;;;5076218;28;20449;-72
2023/12/31 00:03:17;;;;;;;3.87;2.80;;;;;;;;;;5070072;28;20457;-73
2023/12/31 00:05:44;;;;;;;2.60;2.40;;;;;;;;;;5070707;28;20546;-72
2023/12/31 00:08:13;;;;;;;5.70;2.73;;;;;;;;;;5060441;28;20548;-73
2023/12/31 00:10:40;;;;;;;4.47;2.73;;;;;;;;;;5070018;28;20538;-72
2023/12/31 00:13:06;;;;;;;4.30;2.43;;;;;;;;;;5075456;28;21042;-73
2023/12/31 00:15:33;;;;;;;2.67;2.47;;;;;;;;;;5077173;28;20932;-72
2023/12/31 00:17:59;;;;;;;3.40;2.50;;;;;;;;;;5077237;28;20734;-73
2023/12/31 00:20:26;;;;;;;2.97;2.77;;;;;;;;;;5068594;28;20511;-74
2023/12/31 00:22:52;;;;;;;3.00;2.70;;;;;;;;;;5068112;28;20440;-73
2023/12/31 00:25:20;;;;;;;3.87;2.73;;;;;;;;;;5069179;28;20567;-73
2023/12/31 00:27:46;;;;;;;2.63;2.43;;;;;;;;;;5069601;28;20539;-72
2023/12/31 00:30:13;;;;;;;2.93;2.80;;;;;;;;;;5067533;28;20770;-72
2023/12/31 00:32:39;;;;;;;3.10;2.30;;;;;;;;;;5066253;28;20475;-73
2023/12/31 00:35:06;;;;;;;2.40;2.20;;;;;;;;;;5076975;28;20527;-72
2023/12/31 00:37:32;;;;;;;2.40;2.20;;;;;;;;;;5075083;28;20452;-73
2023/12/31 00:39:59;;;;;;;3.70;2.63;;;;;;;;;;5076817;28;20480;-73
2023/12/31 00:42:26;;;;;;;4.40;2.13;;;;;;;;;;5076618;28;20475;-73
2023/12/31 00:44:53;;;;;;;2.60;2.40;;;;;;;;;;5076865;28;20539;-72
2023/12/31 00:47:19;;;;;;;2.83;2.60;;;;;;;;;;5076707;28;21039;-73
2023/12/31 00:49:45;;;;;;;4.70;2.07;;;;;;;;;;5076250;28;20475;-72
2023/12/31 00:52:12;;;;;;;3.03;2.10;;;;;;;;;;5071742;28;20531;-73
2023/12/31 00:54:38;;;;;;;3.83;2.00;;;;;;;;;;5076159;28;21353;-73
2023/12/31 00:57:05;;;;;;;4.20;2.27;;;;;;;;;;5069905;28;20502;-72
2023/12/31 00:59:33;;;;;;;2.67;1.90;;;;;;;;;;5075625;28;20543;-72
2023/12/31 01:01:59;;;;;;;2.40;2.10;;;;;;;;;;5076217;28;20468;-73
2023/12/31 01:04:25;;;;;;;3.00;2.20;;;;;;;;;;5074335;28;20539;-73
2023/12/31 01:06:52;;;;;;;3.30;3.10;;;;;;;;;;5067077;28;20539;-72
2023/12/31 01:09:18;;;;;;;2.70;2.50;;;;;;;;;;5072508;28;20466;-73
2023/12/31 01:11:45;;;;;;;4.70;2.90;;;;;;;;;;5076802;28;20483;-72
2023/12/31 01:14:13;;;;;;;2.50;2.30;;;;;;;;;;5070087;28;20456;-73
2023/12/31 01:16:41;;;;;;;3.40;2.30;;;;;;;;;;5073592;28;20480;-73
2023/12/31 01:19:07;;;;;;;2.27;2.10;;;;;;;;;;5065864;28;20479;-73
2023/12/31 01:21:34;;;;;;;3.70;2.60;;;;;;;;;;5076530;28;20471;-73
2023/12/31 01:24:01;;;;;;;2.57;2.37;;;;;;;;;;5076417;28;20444;-73
2023/12/31 01:26:27;;;;;;;3.00;2.70;;;;;;;;;;5069154;28;20480;-73
2023/12/31 01:28:54;;;;;;;2.47;2.27;;;;;;;;;;5075273;28;20475;-73
2023/12/31 01:31:20;;;;;;;2.10;2.00;;;;;;;;;;5075740;28;20487;-73
2023/12/31 01:33:48;;;;;;;2.70;2.30;;;;;;;;;;5068304;28;20903;-73
2023/12/31 01:36:15;;;;;;;3.40;2.40;;;;;;;;;;5069094;28;20996;-73
2023/12/31 01:38:42;;;;;;;2.10;2.00;;;;;;;;;;5075515;28;20436;-73
2023/12/31 01:41:09;;;;;;;3.10;2.60;;;;;;;;;;5075881;28;20523;-72
2023/12/31 01:43:35;;;;;;;3.07;2.40;;;;;;;;;;5066853;28;20476;-73
2023/12/31 01:46:02;;;;;;;2.47;1.90;;;;;;;;;;5070956;28;20516;-72
2023/12/31 01:48:28;;;;;;;4.70;1.90;;;;;;;;;;5075850;28;20531;-73
2023/12/31 01:50:56;;;;;;;2.00;1.80;;;;;;;;;;5075319;28;20511;-72
2023/12/31 01:53:22;;;;;;;7.03;2.40;;;;;;;;;;5073760;28;20451;-72
2023/12/31 01:55:50;;;;;;;4.30;2.10;;;;;;;;;;5074973;28;20934;-73
2023/12/31 01:58:17;;;;;;;2.57;1.80;;;;;;;;;;5075402;28;20823;-73
2023/12/31 02:00:43;;;;;;;4.20;2.30;;;;;;;;;;5075805;28;20504;-72
2023/12/31 02:03:10;;;;;;;3.10;2.00;;;;;;;;;;5074630;28;20480;-73
2023/12/31 02:05:36;;;;;;;2.37;2.20;;;;;;;;;;5072014;28;20587;-72
2023/12/31 02:08:04;;;;;;;2.50;2.10;;;;;;;;;;5054713;28;20992;-72
2023/12/31 02:10:30;;;;;;;2.33;1.90;;;;;;;;;;5055583;28;20535;-72
2023/12/31 02:12:57;;;;;;;7.70;2.33;;;;;;;;;;5054936;28;20512;-72
2023/12/31 02:15:30;;;;;;;3.70;2.27;;;;;;;;;;5054436;28;20504;-73
2023/12/31 02:17:56;;;;;;;2.53;2.20;;;;;;;;;;5055503;28;20459;-72
2023/12/31 02:20:23;;;;;;;7.03;2.00;;;;;;;;;;5052644;28;20814;-72
2023/12/31 02:22:49;;;;;;;4.90;1.97;;;;;;;;;;5055166;28;20540;-73
2023/12/31 02:25:19;;;;;;;2.30;1.90;;;;;;;;;;5047179;28;20477;-73
2023/12/31 02:27:46;;;;;;;3.93;2.53;;;;;;;;;;5051501;28;20532;-73
2023/12/31 02:30:13;;;;;;;3.90;2.47;;;;;;;;;;5055089;28;20445;-73
2023/12/31 02:32:39;;;;;;;2.83;2.47;;;;;;;;;;5053074;28;20520;-73
2023/12/31 02:35:06;;;;;;;4.77;2.20;;;;;;;;;;5057099;28;20557;-72
2023/12/31 02:37:32;;;;;;;2.60;2.30;;;;;;;;;;5059414;28;20524;-73
2023/12/31 02:39:59;;;;;;;2.87;2.30;;;;;;;;;;5059495;28;20489;-73
2023/12/31 02:42:25;;;;;;;3.33;2.30;;;;;;;;;;5059177;28;20513;-73
2023/12/31 02:44:53;;;;;;;4.43;2.10;;;;;;;;;;5055052;28;20453;-73
2023/12/31 02:47:19;;;;;;;8.07;2.63;;;;;;;;;;5050990;28;20480;-72
2023/12/31 02:49:46;;;;;;;2.00;1.90;;;;;;;;;;5053475;28;20495;-73
2023/12/31 02:52:14;;;;;;;2.33;2.20;;;;;;;;;;5056291;28;20547;-73
2023/12/31 02:54:41;;;;;;;4.03;2.30;;;;;;;;;;5058707;28;20908;-73
2023/12/31 02:57:07;;;;;;;5.50;2.47;;;;;;;;;;5055434;28;20564;-73
2023/12/31 02:59:34;;;;;;;2.90;1.90;;;;;;;;;;5058360;28;20453;-73
2023/12/31 03:02:03;;;;;;;3.77;2.37;;;;;;;;;;5059210;28;20484;-73
2023/12/31 03:04:29;;;;;;;1.80;1.70;;;;;;;;;;5056797;28;20528;-73
2023/12/31 03:06:56;;;;;;;4.30;2.07;;;;;;;;;;5071390;28;20595;-73
2023/12/31 03:09:22;;;;;;;4.50;2.10;;;;;;;;;;5071120;28;20535;-73
2023/12/31 03:11:49;;;;;;;2.80;2.13;;;;;;;;;;5078319;28;20516;-73
2023/12/31 03:14:16;;;;;;;4.00;2.10;;;;;;;;;;5064839;28;20542;-73
2023/12/31 03:16:44;;;;;;;5.70;2.50;;;;;;;;;;5069837;28;20491;-73
2023/12/31 03:19:11;;;;;;;3.70;2.70;;;;;;;;;;5078774;28;20444;-73
2023/12/31 03:21:38;;;;;;;4.27;2.40;;;;;;;;;;5078772;28;20519;-73
2023/12/31 03:24:05;;;;;;;3.60;2.13;;;;;;;;;;5078359;28;20503;-73
2023/12/31 03:26:31;;;;;;;3.00;2.40;;;;;;;;;;5078095;28;20486;-73
2023/12/31 03:28:57;;;;;;;3.00;2.10;;;;;;;;;;5078062;28;20535;-73
2023/12/31 03:31:24;;;;;;;1.90;1.80;;;;;;;;;;5078413;28;20464;-73
2023/12/31 03:33:50;;;;;;;2.60;2.40;;;;;;;;;;5078619;28;20451;-73
2023/12/31 03:36:20;;;;;;;2.43;1.80;;;;;;;;;;5078008;28;20574;-73
2023/12/31 03:38:46;;;;;;;6.27;2.30;;;;;;;;;;5076650;28;20444;-73
2023/12/31 03:41:13;;;;;;;2.67;1.93;;;;;;;;;;5077333;28;20531;-73
2023/12/31 03:43:39;;;;;;;3.70;2.33;;;;;;;;;;5077045;28;20517;-73
2023/12/31 03:46:06;;;;;;;5.83;2.37;;;;;;;;;;5077556;28;20536;-72
2023/12/31 03:48:32;;;;;;;4.33;2.87;;;;;;;;;;5077756;28;20524;-72
2023/12/31 03:50:58;;;;;;;2.80;2.37;;;;;;;;;;5078403;28;20488;-73
2023/12/31 03:53:26;;;;;;;4.20;2.60;;;;;;;;;;5077617;28;20527;-73
2023/12/31 03:55:52;;;;;;;4.10;2.57;;;;;;;;;;5077551;28;20498;-73
2023/12/31 03:58:19;;;;;;;3.03;2.70;;;;;;;;;;5076924;28;20504;-72
2023/12/31 04:00:45;;;;;;;3.97;2.90;;;;;;;;;;5074371;28;20440;-72
2023/12/31 04:03:12;;;;;;;5.20;3.27;;;;;;;;;;5066839;28;20451;-72
2023/12/31 04:05:38;;;;;;;4.93;2.90;;;;;;;;;;5077894;28;20545;-72
2023/12/31 04:08:05;;;;;;;3.00;2.70;;;;;;;;;;5077776;28;20843;-72
2023/12/31 04:10:33;;;;;;;4.63;3.13;;;;;;;;;;5077521;28;20507;-72
2023/12/31 04:12:59;;;;;;;3.10;2.80;;;;;;;;;;5071211;28;20954;-72
2023/12/31 04:15:26;;;;;;;5.20;3.20;;;;;;;;;;5076198;28;20515;-72
2023/12/31 04:17:52;;;;;;;3.47;2.77;;;;;;;;;;5077629;28;20516;-73
2023/12/31 04:20:18;;;;;;;3.20;2.90;;;;;;;;;;5077284;28;20532;-72
2023/12/31 04:22:45;;;;;;;5.33;4.83;;;;;;;;;;5076928;28;20491;-72
2023/12/31 04:25:11;;;;;;;2.80;2.60;;;;;;;;;;5069365;28;20532;-73
2023/12/31 04:27:40;;;;;;;4.13;2.87;;;;;;;;;;5074501;28;20527;-72
2023/12/31 04:30:07;;;;;;;3.40;3.10;;;;;;;;;;5072363;28;21041;-72
2023/12/31 04:32:33;;;;;;;5.20;3.30;;;;;;;;;;5076739;28;20520;-72
2023/12/31 04:35:00;;;;;;;6.73;3.57;;;;;;;;;;5074783;28;20459;-73
2023/12/31 04:37:26;;;;;;;4.13;3.70;;;;;;;;;;5076532;28;20510;-72
2023/12/31 04:39:53;;;;;;;4.07;3.67;;;;;;;;;;5077134;28;21021;-72
2023/12/31 04:42:19;;;;;;;3.30;3.00;;;;;;;;;;5077238;28;20459;-72
2023/12/31 04:44:47;;;;;;;3.70;3.40;;;;;;;;;;5076304;28;21208;-72
2023/12/31 04:47:13;;;;;;;4.30;3.63;;;;;;;;;;5067915;28;20491;-72
2023/12/31 04:49:40;;;;;;;4.50;3.37;;;;;;;;;;5075089;28;20454;-72
2023/12/31 04:52:08;;;;;;;3.93;3.50;;;;;;;;;;5069732;28;20448;-72
2023/12/31 04:54:35;;;;;;;4.07;3.67;;;;;;;;;;5076574;28;20511;-72
2023/12/31 04:57:01;;;;;;;3.50;3.10;;;;;;;;;;5075430;28;20582;-72
2023/12/31 04:59:27;;;;;;;5.10;4.60;;;;;;;;;;5076366;28;20475;-72
2023/12/31 05:01:55;;;;;;;5.67;4.37;;;;;;;;;;5073858;28;20511;-72
2023/12/31 05:04:21;;;;;;;4.20;3.83;;;;;;;;;;5076323;28;20484;-72
2023/12/31 05:06:48;;;;;;;4.30;3.97;;;;;;;;;;5075971;28;20539;-72
2023/12/31 05:09:15;;;;;;;9.57;4.80;;;;;;;;;;5076514;28;20475;-72
2023/12/31 05:11:41;;;;;;;7.07;4.50;;;;;;;;;;5075425;28;20515;-73
2023/12/31 05:14:07;;;;;;;4.50;3.93;;;;;;;;;;5072169;28;20480;-72
2023/12/31 05:16:34;;;;;;;5.97;4.27;;;;;;;;;;5075291;28;20476;-73
2023/12/31 05:19:02;;;;;;;5.80;4.80;;;;;;;;;;5076101;28;20480;-73
2023/12/31 05:21:28;;;;;;;6.37;4.30;;;;;;;;;;5076583;28;20818;-72
2023/12/31 05:23:54;;;;;;;5.33;4.83;;;;;;;;;;5076537;28;20436;-72
2023/12/31 05:26:21;;;;;;;7.33;4.70;;;;;;;;;;5076029;28;20448;-72
2023/12/31 05:28:47;;;;;;;5.97;4.27;;;;;;;;;;5075570;28;20462;-72
2023/12/31 05:31:13;;;;;;;5.50;4.97;;;;;;;;;;5076411;28;20475;-72
2023/12/31 05:33:41;;;;;;;5.37;4.60;;;;;;;;;;5076129;28;20590;-72
2023/12/31 05:36:09;;;;;;;7.53;4.63;;;;;;;;;;5075460;28;20571;-72
2023/12/31 05:38:35;;;;;;;4.70;4.30;;;;;;;;;;5072104;28;20471;-73
2023/12/31 05:41:02;;;;;;;5.17;4.20;;;;;;;;;;5076501;28;20479;-72
2023/12/31 05:43:28;;;;;;;7.47;5.30;;;;;;;;;;5075193;28;20975;-72
2023/12/31 05:45:55;;;;;;;5.53;3.73;;;;;;;;;;5075542;28;20512;-72
2023/12/31 05:48:21;;;;;;;7.00;5.20;;;;;;;;;;5072636;28;20879;-72
2023/12/31 05:50:48;;;;;;;5.50;4.97;;;;;;;;;;5073877;28;20447;-72
2023/12/31 05:53:15;;;;;;;6.20;3.87;;;;;;;;;;5075698;28;20512;-72
2023/12/31 05:55:43;;;;;;;6.30;4.67;;;;;;;;;;5075026;28;20929;-72
2023/12/31 05:58:10;;;;;;;5.10;4.50;;;;;;;;;;5071424;28;20456;-72
2023/12/31 06:00:36;;;;;;;5.97;4.03;;;;;;;;;;5075636;28;20696;-72
2023/12/31 06:03:03;;;;;;;4.73;4.30;;;;;;;;;;5069902;28;20531;-71
2023/12/31 06:05:29;;;;;;;5.60;4.47;;;;;;;;;;5073718;28;20452;-72
2023/12/31 06:07:55;;;;;;;5.80;4.97;;;;;;;;;;5054972;28;20802;-72
2023/12/31 06:10:23;;;;;;;6.47;4.80;;;;;;;;;;5055771;28;20447;-72
2023/12/31 06:12:50;;;;;;;8.83;4.47;;;;;;;;;;5055381;28;20457;-72
2023/12/31 06:15:16;;;;;;;4.80;4.40;;;;;;;;;;5053966;28;20480;-72
2023/12/31 06:17:43;;;;;;;5.40;4.90;;;;;;;;;;5055026;28;20504;-71
2023/12/31 06:20:10;;;;;;;4.90;3.80;;;;;;;;;;5053518;28;20479;-72
2023/12/31 06:22:37;;;;;;;6.40;4.47;;;;;;;;;;5051342;28;20467;-72
2023/12/31 06:25:04;;;;;;;6.07;4.50;;;;;;;;;;5047453;28;20449;-73
2023/12/31 06:27:32;;;;;;;3.90;3.47;;;;;;;;;;5051898;28;20459;-74
2023/12/31 06:29:59;;;;;;;4.87;4.30;;;;;;;;;;5054607;28;20467;-72
2023/12/31 06:32:25;;;;;;;4.73;3.77;;;;;;;;;;5055826;28;20443;-72
2023/12/31 06:34:51;;;;;;;8.57;4.43;;;;;;;;;;5054188;28;20512;-72
2023/12/31 06:37:18;;;;;;;6.20;3.70;;;;;;;;;;5055394;28;20496;-72
2023/12/31 06:39:44;;;;;;;6.70;4.43;;;;;;;;;;5047984;28;20433;-72
2023/12/31 06:42:11;;;;;;;3.83;3.40;;;;;;;;;;5054556;28;20457;-73
2023/12/31 06:44:39;;;;;;;3.97;3.30;;;;;;;;;;5055010;28;21057;-72
2023/12/31 06:47:05;;;;;;;3.93;3.50;;;;;;;;;;5054627;28;20544;-73
2023/12/31 06:49:31;;;;;;;4.07;3.73;;;;;;;;;;5044590;28;20817;-72
2023/12/31 06:52:04;;;;;;;3.97;3.40;;;;;;;;;;5055137;28;20516;-72
2023/12/31 06:54:30;;;;;;;4.00;3.70;;;;;;;;;;5055759;28;20457;-72
2023/12/31 06:56:56;;;;;;;4.30;3.60;;;;;;;;;;5054371;28;20499;-72
2023/12/31 06:59:23;;;;;;;3.97;3.53;;;;;;;;;;5054118;28;20531;-72
2023/12/31 07:01:51;;;;;;;4.97;3.93;;;;;;;;;;5055362;28;20448;-72
2023/12/31 07:04:17;;;;;;;3.87;3.43;;;;;;;;;;5054778;28;20527;-73
2023/12/31 07:06:43;;;;;;;4.33;3.47;;;;;;;;;;5066436;28;20979;-72
2023/12/31 07:09:10;;;;;;;4.17;3.73;;;;;;;;;;5075084;28;20491;-71
2023/12/31 07:11:37;;;;;;;8.40;4.30;;;;;;;;;;5075149;28;20483;-72
2023/12/31 07:14:03;;;;;;;4.30;4.00;;;;;;;;;;5073479;28;20444;-72
2023/12/31 07:16:30;;;;;;;3.93;3.63;;;;;;;;;;5074614;28;20484;-73
2023/12/31 07:18:58;;;;;;;3.77;3.47;;;;;;;;;;5074962;28;20511;-73
2023/12/31 07:21:25;;;;;;;3.80;3.50;;;;;;;;;;5077360;28;20443;-72
2023/12/31 07:23:51;;;;;;;4.20;3.80;;;;;;;;;;5078382;28;20735;-72
2023/12/31 07:26:25;;;;;;;4.13;3.50;;;;;;;;;;5078437;28;20471;-72
2023/12/31 07:28:51;;;;;;;4.10;3.70;;;;;;;;;;5073600;28;20454;-72
2023/12/31 07:31:18;;;;;;;4.30;3.90;;;;;;;;;;5077832;28;20526;-73
2023/12/31 07:33:44;;;;;;;4.80;3.30;;;;;;;;;;5072730;28;20535;-73
2023/12/31 07:36:12;;;;;;;4.60;3.90;;;;;;;;;;5075986;28;21399;-71
2023/12/31 07:38:38;;;;;;;5.20;3.60;;;;;;;;;;5078628;28;20519;-72
2023/12/31 07:41:05;;;;;;;4.10;3.70;;;;;;;;;;5078010;28;20507;-73
2023/12/31 07:43:31;;;;;;;3.90;3.40;;;;;;;;;;5078253;28;20554;-72
2023/12/31 07:45:57;;;;;;;3.77;3.40;;;;;;;;;;5077764;28;20515;-72
2023/12/31 07:48:24;;;;;;;4.33;3.93;;;;;;;;;;5069955;28;20475;-72
2023/12/31 07:50:51;;;;;;;4.53;4.13;;;;;;;;;;5067709;28;20491;-72
2023/12/31 07:53:19;;;;;;;4.43;3.80;;;;;;;;;;5078765;28;20717;-72
2023/12/31 07:55:47;;;;;;;4.83;4.43;;;;;;;;;;5075446;28;20452;-72
2023/12/31 07:58:13;;;;;;;4.03;3.30;;;;;;;;;;5074224;28;20877;-72
2023/12/31 08:00:39;;;;;;;4.27;3.97;;;;;;;;;;5069498;28;20454;-72
2023/12/31 08:03:06;;;;;;;4.20;3.80;;;;;;;;;;5078042;28;20519;-73
2023/12/31 08:05:33;;;;;;;6.27;4.30;;;;;;;;;;5074876;28;20560;-72
2023/12/31 08:08:00;;;;;;;3.90;3.70;;;;;;;;;;5056324;28;20527;-72
2023/12/31 08:10:27;;;;;;;4.80;4.40;;;;;;;;;;5057656;28;20445;-72
2023/12/31 08:12:54;;;;;;;4.83;4.43;;;;;;;;;;5057862;28;20567;-72
2023/12/31 08:15:20;;;;;;;5.03;4.63;;;;;;;;;;5056926;28;20568;-72
2023/12/31 08:17:46;;;;;;;4.60;4.13;;;;;;;;;;5056915;28;20488;-72
2023/12/31 08:20:13;;;;;;;4.10;3.80;;;;;;;;;;5056718;28;20540;-72
2023/12/31 08:22:39;;;;;;;3.87;3.60;;;;;;;;;;5054577;28;20513;-72
2023/12/31 08:25:06;;;;;;;4.30;4.00;;;;;;;;;;5045740;28;20495;-72
2023/12/31 08:27:34;;;;;;;7.07;3.90;;;;;;;;;;5056807;28;20997;-72
2023/12/31 08:30:01;;;;;;;4.63;4.33;;;;;;;;;;5056826;28;20516;-72
2023/12/31 08:32:28;;;;;;;4.40;4.10;;;;;;;;;;5057438;28;20471;-72
2023/12/31 08:34:55;;;;;;;4.67;4.27;;;;;;;;;;5057166;28;21041;-73
2023/12/31 08:37:21;;;;;;;4.70;4.30;;;;;;;;;;5057039;28;20556;-72
2023/12/31 08:39:47;;;;;;;4.50;4.10;;;;;;;;;;5057467;28;20452;-72
2023/12/31 08:42:14;;;;;;;4.23;3.83;;;;;;;;;;5056762;28;20536;-73
2023/12/31 08:44:42;;;;;;;7.43;6.83;;;;;;;;;;5056078;28;20983;-72
2023/12/31 08:47:08;;;;;;;6.97;6.57;;;;;;;;;;5050706;28;20480;-73
2023/12/31 08:49:35;;;;;;;7.60;7.13;;;;;;;;;;5057192;28;20449;-72
2023/12/31 08:52:02;;;;;;;4.07;3.77;;;;;;;;;;5057483;28;20483;-72
2023/12/31 08:54:28;;;;;;;3.93;3.63;;;;;;;;;;5057571;28;20461;-72
2023/12/31 08:56:54;;;;;;;4.43;3.60;;;;;;;;;;5056328;28;20521;-73
2023/12/31 08:59:21;;;;;;;4.40;4.00;;;;;;;;;;5055817;28;20543;-73
2023/12/31 09:01:49;;;;;;;3.83;3.53;;;;;;;;;;5055221;28;20449;-72
2023/12/31 09:04:15;;;;;;;4.23;3.93;;;;;;;;;;5056355;28;20495;-73
2023/12/31 09:06:41;;;;;;;4.27;3.73;;;;;;;;;;5068305;28;20547;-73
2023/12/31 09:09:08;;;;;;;3.90;3.70;;;;;;;;;;5074688;28;20529;-72
2023/12/31 09:11:35;;;;;;;4.63;4.20;;;;;;;;;;5071262;28;20538;-73
2023/12/31 09:14:01;;;;;;;3.87;3.57;;;;;;;;;;5075327;28;20520;-73
2023/12/31 09:16:28;;;;;;;4.47;4.17;;;;;;;;;;5076824;28;20456;-72
2023/12/31 09:18:56;;;;;;;4.43;4.13;;;;;;;;;;5076203;28;20809;-73
2023/12/31 09:21:22;;;;;;;3.87;3.50;;;;;;;;;;5072675;28;20480;-72
2023/12/31 09:23:48;;;;;;;4.53;3.70;;;;;;;;;;5072595;28;20459;-72
2023/12/31 09:26:15;;;;;;;4.10;3.80;;;;;;;;;;5075758;28;20526;-72
2023/12/31 09:28:42;;;;;;;4.37;3.90;;;;;;;;;;5075164;28;20491;-73
2023/12/31 09:31:09;;;;;;;5.20;4.20;;;;;;;;;;5074804;28;20440;-73
2023/12/31 09:33:35;;;;;;;4.10;3.80;;;;;;;;;;5073400;28;20543;-72
2023/12/31 09:36:05;;;;;;;4.80;4.50;;;;;;;;;;5072792;28;20552;-73
2023/12/31 09:38:31;;;;;;;4.80;4.50;;;;;;;;;;5076249;28;21079;-72
2023/12/31 09:40:58;;;;;;;4.27;3.93;;;;;;;;;;5072767;28;20467;-72
2023/12/31 09:43:25;;;;;;;4.30;4.00;;;;;;;;;;5075492;28;20479;-72
2023/12/31 09:45:52;;;;;;;4.33;3.90;;;;;;;;;;5071754;28;20445;-72
2023/12/31 09:48:20;;;;;;;3.83;3.53;;;;;;;;;;5075166;28;20539;-72
2023/12/31 09:50:47;;;;;;;4.83;4.43;;;;;;;;;;5075990;28;20511;-72
2023/12/31 09:53:16;;;;;;;4.37;4.07;;;;;;;;;;5070136;28;20459;-73
2023/12/31 09:55:42;;;;;;;5.00;4.13;;;;;;;;;;5072427;28;20538;-72
2023/12/31 09:58:09;;;;;;;4.10;3.80;;;;;;;;;;5064325;28;20524;-72
2023/12/31 10:00:36;;;;;;;4.20;3.90;;;;;;;;;;5075609;28;20524;-72
2023/12/31 10:03:03;;;;;;;5.00;4.60;;;;;;;;;;5075950;28;20483;-73
2023/12/31 10:05:30;;;;;;;4.73;4.43;;;;;;;;;;5074561;28;20459;-72
2023/12/31 10:07:57;;;;;;;4.37;4.07;;;;;;;;;;5075440;28;20535;-72
2023/12/31 10:10:25;;;;;;;5.03;4.63;;;;;;;;;;5075752;28;20503;-72
2023/12/31 10:12:51;;;;;;;4.23;3.83;;;;;;;;;;5075309;28;20484;-72
2023/12/31 10:15:17;;;;;;;3.30;3.10;;;;;;;;;;5072048;28;20514;-72
2023/12/31 10:17:44;;;;;;;5.20;4.73;;;;;;;;;;5069952;28;20551;-73
2023/12/31 10:20:11;;;;;;;5.43;4.93;;;;;;;;;;5075758;28;20483;-72
2023/12/31 10:22:37;;;;;;;7.07;5.03;;;;;;;;;;5066967;28;21022;-72
2023/12/31 10:25:12;;;;;;;4.40;4.10;;;;;;;;;;5068325;28;20476;-72
2023/12/31 10:27:40;;;;;;;4.70;4.30;;;;;;;;;;5075560;28;20454;-73
2023/12/31 10:30:09;;;;;;;3.70;3.40;;;;;;;;;;5075046;28;20483;-72
2023/12/31 10:32:35;;;;;;;3.87;3.53;;;;;;;;;;5075778;28;20482;-73
2023/12/31 10:35:02;;;;;;;4.03;3.60;;;;;;;;;;5075115;28;20491;-73
2023/12/31 10:37:28;;;;;;;4.13;3.83;;;;;;;;;;5075100;28;20444;-72
2023/12/31 10:39:55;;;;;;;4.30;3.67;;;;;;;;;;5072714;28;21159;-72
2023/12/31 10:42:22;;;;;;;4.57;4.17;;;;;;;;;;5069010;28;20530;-73
2023/12/31 10:44:53;;;;;;;3.90;3.60;;;;;;;;;;5069691;28;20466;-73
2023/12/31 10:47:19;;;;;;;5.07;4.00;;;;;;;;;;5069441;28;20483;-73
2023/12/31 10:49:46;;;;;;;4.13;3.73;;;;;;;;;;5074998;28;20448;-73
2023/12/31 10:52:14;;;;;;;4.43;4.03;;;;;;;;;;5075024;28;20444;-72
2023/12/31 10:54:44;;;;;;;4.93;4.63;;;;;;;;;;5070069;28;20546;-72
2023/12/31 10:57:10;;;;;;;5.30;4.80;;;;;;;;;;5076787;28;20559;-73
2023/12/31 10:59:37;;;;;;;4.73;4.43;;;;;;;;;;5078050;28;20491;-73
2023/12/31 11:02:05;;;;;;;5.33;4.93;;;;;;;;;;5079666;28;20467;-72
2023/12/31 11:04:32;;;;;;;5.57;5.07;;;;;;;;;;5078848;28;20502;-72
2023/12/31 11:07:00;;;;;;;5.90;5.40;;;;;;;;;;5077119;28;20823;-72
2023/12/31 11:09:28;;;;;;;5.90;5.10;;;;;;;;;;5068201;28;20994;-72
2023/12/31 11:11:54;;;;;;;5.33;4.93;;;;;;;;;;5077319;28;20729;-73
2023/12/31 11:14:24;;;;;;;5.87;5.37;;;;;;;;;;5077470;28;20523;-72
2023/12/31 11:16:54;;;;;;;5.30;4.87;;;;;;;;;;5078760;28;20456;-73
2023/12/31 11:19:40;;;;;;;5.57;5.17;;;;;;;;;;5075355;28;20498;-73
2023/12/31 11:22:16;;;;;;;5.07;4.67;;;;;;;;;;5075248;28;21596;-72
2023/12/31 11:24:43;;;;;;;5.20;4.73;;;;;;;;;;5071518;28;20539;-73
2023/12/31 11:27:15;;;;;;;5.13;4.73;;;;;;;;;;5072831;28;20487;-72
2023/12/31 11:29:41;;;;;;;4.60;4.20;;;;;;;;;;5077409;28;20539;-73
2023/12/31 11:32:09;;;;;;;5.00;4.60;;;;;;;;;;5075415;28;20435;-72
2023/12/31 11:34:38;;;;;;;4.87;4.47;;;;;;;;;;5074513;28;20503;-73
2023/12/31 11:37:06;;;;;;;4.60;4.20;;;;;;;;;;5075533;28;20451;-73
2023/12/31 11:39:32;;;;;;;4.50;4.10;;;;;;;;;;5077881;28;20480;-73
2023/12/31 11:42:00;;;;;;;5.27;3.67;;;;;;;;;;5077813;28;20993;-72
2023/12/31 11:44:37;;;;;;;4.70;4.30;;;;;;;;;;5076554;28;20452;-73
2023/12/31 11:47:03;;;;;;;4.70;4.20;;;;;;;;;;5077831;28;20439;-72
2023/12/31 11:49:30;;;;;;;5.67;4.43;;;;;;;;;;5078243;28;20864;-73
2023/12/31 11:51:58;;;;;;;5.83;5.00;;;;;;;;;;5077334;28;20479;-73
2023/12/31 11:54:26;;;;;;;5.30;4.80;;;;;;;;;;5071660;28;20492;-72
2023/12/31 11:56:54;;;;;;;7.70;5.70;;;;;;;;;;5073985;28;20487;-72
2023/12/31 11:59:21;;;;;;;6.10;5.63;;;;;;;;;;5074640;28;20572;-72
2023/12/31 12:01:48;;;;;;;5.47;5.07;;;;;;;;;;5077656;28;20478;-72
2023/12/31 12:04:15;;;;;;;6.90;5.23;;;;;;;;;;5077324;28;20939;-72
2023/12/31 12:06:41;;;;;;;5.20;4.70;;;;;;;;;;5064393;28;20496;-73
2023/12/31 12:09:09;;;;;;;5.23;4.83;;;;;;;;;;5056488;28;20942;-72
2023/12/31 12:11:35;;;;;;;6.40;4.43;;;;;;;;;;5057237;28;20771;-72
2023/12/31 12:14:02;;;;;;;5.23;4.50;;;;;;;;;;5050878;28;20491;-73
2023/12/31 12:16:29;;;;;;;4.87;4.47;;;;;;;;;;5056417;28;20896;-72
2023/12/31 12:18:59;;;;;;;4.63;4.23;;;;;;;;;;5057198;28;20499;-73
2023/12/31 12:21:25;;;;;;;6.20;5.20;;;;;;;;;;5056342;28;20445;-73
2023/12/31 12:23:53;;;;;;;5.00;4.60;;;;;;;;;;5055313;28;20484;-72
2023/12/31 12:26:21;;;;;;;5.60;5.10;;;;;;;;;;5056686;28;20453;-73
2023/12/31 12:28:47;;;;;;;5.10;4.70;;;;;;;;;;5056399;28;20496;-73
2023/12/31 12:31:14;;;;;;;5.90;5.50;;;;;;;;;;5056836;28;20480;-72
2023/12/31 12:33:43;;;;;;;5.03;4.63;;;;;;;;;;5056934;28;20453;-72
2023/12/31 12:36:09;;;;;;;5.40;5.00;;;;;;;;;;5056386;28;20910;-72
2023/12/31 12:38:36;;;;;;;5.80;5.30;;;;;;;;;;5049014;28;20488;-72
2023/12/31 12:41:04;;;;;;;4.53;4.23;;;;;;;;;;5054735;28;20539;-73
2023/12/31 12:43:32;;;;;;;5.00;4.50;;;;;;;;;;5054111;28;20528;-72
2023/12/31 12:46:05;;;;;;;5.30;4.80;;;;;;;;;;5055982;28;20517;-72
2023/12/31 12:48:32;;;;;;;4.57;4.13;;;;;;;;;;5052769;28;21075;-72
2023/12/31 12:50:59;;;;;;;4.90;4.50;;;;;;;;;;5056406;28;20445;-72
2023/12/31 12:53:25;;;;;;;4.00;3.70;;;;;;;;;;5056470;28;20467;-72
2023/12/31 12:55:51;;;;;;;5.63;4.60;;;;;;;;;;5056812;28;20456;-73
2023/12/31 12:58:18;;;;;;;4.50;4.20;;;;;;;;;;5056286;28;20524;-72
2023/12/31 13:00:46;;;;;;;6.47;5.87;;;;;;;;;;5055752;28;20739;-72
2023/12/31 13:03:12;;;;;;;5.13;4.73;;;;;;;;;;5056741;28;20568;-73
2023/12/31 13:05:38;;;;;;;4.60;4.20;;;;;;;;;;5054922;28;20585;-72
2023/12/31 13:08:05;;;;;;;4.70;4.30;;;;;;;;;;5050324;28;20528;-73
2023/12/31 13:10:31;;;;;;;5.93;4.33;;;;;;;;;;5052694;28;20481;-72
2023/12/31 13:12:58;;;;;;;4.80;4.40;;;;;;;;;;5054878;28;20484;-72
2023/12/31 13:15:24;;;;;;;4.90;4.50;;;;;;;;;;5055475;28;20579;-72
2023/12/31 13:17:52;;;;;;;4.77;4.40;;;;;;;;;;5054852;28;20470;-72
2023/12/31 13:20:18;;;;;;;4.47;4.07;;;;;;;;;;5056248;28;20573;-73
2023/12/31 13:22:45;;;;;;;3.90;3.50;;;;;;;;;;5055339;28;20802;-72
2023/12/31 13:25:11;;;;;;;4.83;4.43;;;;;;;;;;5056345;28;20513;-72
2023/12/31 13:27:37;;;;;;;4.67;4.37;;;;;;;;;;5054440;28;20452;-73
2023/12/31 13:30:04;;;;;;;4.87;4.67;;;;;;;;;;5055515;28;20472;-73
2023/12/31 13:32:31;;;;;;;4.57;4.27;;;;;;;;;;5049486;28;21078;-72
2023/12/31 13:34:58;;;;;;;4.30;4.00;;;;;;;;;;5051655;28;20520;-72
2023/12/31 13:37:25;;;;;;;4.00;3.70;;;;;;;;;;5055005;28;21029;-72
2023/12/31 13:39:51;;;;;;;4.10;3.90;;;;;;;;;;5055723;28;20529;-72
2023/12/31 13:42:18;;;;;;;4.03;3.83;;;;;;;;;;5055383;28;20491;-72
2023/12/31 13:44:44;;;;;;;4.47;4.17;;;;;;;;;;5054034;28;20468;-72
2023/12/31 13:47:10;;;;;;;3.70;3.50;;;;;;;;;;5050091;28;21052;-72
2023/12/31 13:49:37;;;;;;;3.50;3.30;;;;;;;;;;5055220;28;20472;-72
2023/12/31 13:52:05;;;;;;;3.30;3.10;;;;;;;;;;5053104;28;20520;-73
2023/12/31 13:54:31;;;;;;;3.70;3.40;;;;;;;;;;5050083;28;20526;-72
2023/12/31 13:56:58;;;;;;;2.93;2.83;;;;;;;;;;5054677;28;21025;-72
2023/12/31 13:59:24;;;;;;;3.40;3.10;;;;;;;;;;5044587;28;20931;-71
2023/12/31 14:01:51;;;;;;;4.30;4.00;;;;;;;;;;5055166;28;20441;-72
2023/12/31 14:04:17;;;;;;;4.43;4.03;;;;;;;;;;5050731;28;20586;-73
2023/12/31 14:06:45;;;;;;;2.77;2.67;;;;;;;;;;5066736;28;20531;-72
2023/12/31 14:09:13;;;;;;;3.20;3.00;;;;;;;;;;5075303;28;20448;-72
2023/12/31 14:11:41;;;;;;;2.87;2.70;;;;;;;;;;5075458;28;20477;-72
2023/12/31 14:14:08;;;;;;;4.03;3.83;;;;;;;;;;5071473;28;20518;-72
2023/12/31 14:16:35;;;;;;;3.83;3.63;;;;;;;;;;5074845;28;20920;-72
2023/12/31 14:19:03;;;;;;;3.90;3.70;;;;;;;;;;5072065;28;20504;-73
2023/12/31 14:21:29;;;;;;;4.30;4.00;;;;;;;;;;5075324;28;20440;-72
2023/12/31 14:23:56;;;;;;;4.13;3.83;;;;;;;;;;5065313;28;20455;-72
2023/12/31 14:26:24;;;;;;;3.73;3.53;;;;;;;;;;5067792;28;20739;-72
2023/12/31 14:28:50;;;;;;;4.00;3.70;;;;;;;;;;5074145;28;20459;-73
2023/12/31 14:31:17;;;;;;;3.70;3.40;;;;;;;;;;5073764;28;20452;-72
2023/12/31 14:33:43;;;;;;;3.87;3.57;;;;;;;;;;5075093;28;20501;-72
2023/12/31 14:36:10;;;;;;;3.70;3.40;;;;;;;;;;5075843;28;21023;-72
2023/12/31 14:38:36;;;;;;;3.20;2.90;;;;;;;;;;5074526;28;21024;-72
2023/12/31 14:41:03;;;;;;;3.00;2.53;;;;;;;;;;5074849;28;21016;-72